sensor_id;sensor_type;location;lat;lon;timestamp;P1;durP1;ratioP1;P2;durP2;ratioP2
20287;SDS011;10303;51.960;8.372;2024-01-11T00:00:41;21.70;;;9.33;;
20287;SDS011;10303;51.960;8.372;2024-01-11T00:03:07;17.43;;;7.20;;
20287;SDS011;10303;51.960;8.372;2024-01-11T00:05:33;12.70;;;7.57;;
20287;SDS011;10303;51.960;8.372;2024-01-11T00:07:59;17.90;;;8.13;;
20287;SDS011;10303;51.960;8.372;2024-01-11T00:10:24;16.87;;;7.73;;
20287;SDS011;10303;51.960;8.372;2024-01-11T00:12:50;16.10;;;7.70;;
20287;SDS011;10303;51.960;8.372;2024-01-11T00:15:16;21.33;;;8.60;;
20287;SDS011;10303;51.960;8.372;2024-01-11T00:17:43;15.60;;;7.47;;
20287;SDS011;10303;51.960;8.372;2024-01-11T00:20:09;17.50;;;8.60;;
20287;SDS011;10303;51.960;8.372;2024-01-11T00:22:36;17.33;;;8.57;;
20287;SDS011;10303;51.960;8.372;2024-01-11T00:25:02;17.00;;;7.87;;
20287;SDS011;10303;51.960;8.372;2024-01-11T00:27:29;19.13;;;9.10;;
20287;SDS011;10303;51.960;8.372;2024-01-11T00:29:55;18.97;;;8.60;;
20287;SDS011;10303;51.960;8.372;2024-01-11T00:32:21;21.53;;;8.93;;
20287;SDS011;10303;51.960;8.372;2024-01-11T00:34:47;15.43;;;7.63;;
20287;SDS011;10303;51.960;8.372;2024-01-11T00:37:13;18.83;;;9.03;;
20287;SDS011;10303;51.960;8.372;2024-01-11T00:39:39;18.93;;;9.10;;
20287;SDS011;10303;51.960;8.372;2024-01-11T00:42:05;17.93;;;7.87;;
20287;SDS011;10303;51.960;8.372;2024-01-11T00:44:31;16.53;;;8.73;;
20287;SDS011;10303;51.960;8.372;2024-01-11T00:46:58;23.37;;;9.30;;
20287;SDS011;10303;51.960;8.372;2024-01-11T00:49:23;20.73;;;9.33;;
20287;SDS011;10303;51.960;8.372;2024-01-11T00:51:49;22.00;;;7.93;;
20287;SDS011;10303;51.960;8.372;2024-01-11T00:54:15;17.40;;;8.70;;
20287;SDS011;10303;51.960;8.372;2024-01-11T00:56:41;22.60;;;9.20;;
20287;SDS011;10303;51.960;8.372;2024-01-11T00:59:07;19.77;;;8.40;;
20287;SDS011;10303;51.960;8.372;2024-01-11T01:01:33;19.93;;;8.70;;
20287;SDS011;10303;51.960;8.372;2024-01-11T01:03:59;18.77;;;8.00;;
20287;SDS011;10303;51.960;8.372;2024-01-11T01:06:25;22.10;;;10.03;;
20287;SDS011;10303;51.960;8.372;2024-01-11T01:08:51;22.10;;;9.73;;
20287;SDS011;10303;51.960;8.372;2024-01-11T01:11:17;18.77;;;8.77;;
20287;SDS011;10303;51.960;8.372;2024-01-11T01:13:42;21.77;;;8.90;;
20287;SDS011;10303;51.960;8.372;2024-01-11T01:16:08;23.00;;;9.33;;
20287;SDS011;10303;51.960;8.372;2024-01-11T01:18:34;20.07;;;8.50;;
20287;SDS011;10303;51.960;8.372;2024-01-11T01:21:00;18.83;;;8.33;;
20287;SDS011;10303;51.960;8.372;2024-01-11T01:23:26;20.97;;;8.27;;
20287;SDS011;10303;51.960;8.372;2024-01-11T01:25:52;17.83;;;8.87;;
20287;SDS011;10303;51.960;8.372;2024-01-11T01:28:18;20.00;;;9.23;;
20287;SDS011;10303;51.960;8.372;2024-01-11T01:30:44;19.47;;;8.47;;
20287;SDS011;10303;51.960;8.372;2024-01-11T01:33:10;21.40;;;8.53;;
20287;SDS011;10303;51.960;8.372;2024-01-11T01:35:35;19.00;;;8.30;;
20287;SDS011;10303;51.960;8.372;2024-01-11T01:38:02;18.47;;;8.73;;
20287;SDS011;10303;51.960;8.372;2024-01-11T01:40:29;13.77;;;7.97;;
20287;SDS011;10303;51.960;8.372;2024-01-11T01:43:00;13.63;;;7.80;;
20287;SDS011;10303;51.960;8.372;2024-01-11T01:45:26;15.90;;;7.93;;
20287;SDS011;10303;51.960;8.372;2024-01-11T01:47:52;17.67;;;8.77;;
20287;SDS011;10303;51.960;8.372;2024-01-11T01:50:20;20.00;;;9.03;;
20287;SDS011;10303;51.960;8.372;2024-01-11T01:52:46;19.13;;;8.50;;
20287;SDS011;10303;51.960;8.372;2024-01-11T01:55:14;17.23;;;8.20;;
20287;SDS011;10303;51.960;8.372;2024-01-11T01:57:41;19.40;;;9.10;;
20287;SDS011;10303;51.960;8.372;2024-01-11T02:00:08;18.07;;;9.37;;
20287;SDS011;10303;51.960;8.372;2024-01-11T02:02:37;23.20;;;9.23;;
20287;SDS011;10303;51.960;8.372;2024-01-11T02:05:05;17.40;;;7.87;;
20287;SDS011;10303;51.960;8.372;2024-01-11T02:07:33;23.30;;;8.93;;
20287;SDS011;10303;51.960;8.372;2024-01-11T02:10:00;14.93;;;7.27;;
20287;SDS011;10303;51.960;8.372;2024-01-11T02:12:28;18.37;;;8.60;;
20287;SDS011;10303;51.960;8.372;2024-01-11T02:14:54;21.57;;;9.43;;
20287;SDS011;10303;51.960;8.372;2024-01-11T02:17:21;16.87;;;8.80;;
20287;SDS011;10303;51.960;8.372;2024-01-11T02:19:47;15.80;;;8.23;;
20287;SDS011;10303;51.960;8.372;2024-01-11T02:22:15;19.03;;;8.20;;
20287;SDS011;10303;51.960;8.372;2024-01-11T02:24:54;14.95;;;7.85;;
20287;SDS011;10303;51.960;8.372;2024-01-11T02:27:21;19.20;;;9.33;;
20287;SDS011;10303;51.960;8.372;2024-01-11T02:29:47;18.83;;;8.50;;
20287;SDS011;10303;51.960;8.372;2024-01-11T02:32:13;17.83;;;7.80;;
20287;SDS011;10303;51.960;8.372;2024-01-11T02:34:39;19.38;;;9.07;;
20287;SDS011;10303;51.960;8.372;2024-01-11T02:37:06;20.90;;;8.57;;
20287;SDS011;10303;51.960;8.372;2024-01-11T02:39:32;13.25;;;7.30;;
20287;SDS011;10303;51.960;8.372;2024-01-11T02:41:59;16.15;;;7.78;;
20287;SDS011;10303;51.960;8.372;2024-01-11T02:44:25;18.77;;;7.97;;
20287;SDS011;10303;51.960;8.372;2024-01-11T02:46:51;16.77;;;6.90;;
20287;SDS011;10303;51.960;8.372;2024-01-11T02:49:17;18.63;;;6.88;;
20287;SDS011;10303;51.960;8.372;2024-01-11T02:51:43;14.83;;;7.70;;
20287;SDS011;10303;51.960;8.372;2024-01-11T02:54:10;15.75;;;7.93;;
20287;SDS011;10303;51.960;8.372;2024-01-11T02:56:35;19.40;;;8.73;;
20287;SDS011;10303;51.960;8.372;2024-01-11T02:59:01;19.93;;;8.33;;
20287;SDS011;10303;51.960;8.372;2024-01-11T03:01:27;13.43;;;7.17;;
20287;SDS011;10303;51.960;8.372;2024-01-11T03:03:54;22.50;;;8.63;;
20287;SDS011;10303;51.960;8.372;2024-01-11T03:06:21;15.95;;;7.55;;
20287;SDS011;10303;51.960;8.372;2024-01-11T03:08:48;16.00;;;7.25;;
20287;SDS011;10303;51.960;8.372;2024-01-11T03:11:14;16.55;;;8.07;;
20287;SDS011;10303;51.960;8.372;2024-01-11T03:13:41;23.08;;;9.32;;
20287;SDS011;10303;51.960;8.372;2024-01-11T03:16:08;19.23;;;7.97;;
20287;SDS011;10303;51.960;8.372;2024-01-11T03:18:34;22.73;;;9.50;;
20287;SDS011;10303;51.960;8.372;2024-01-11T03:20:59;20.97;;;8.87;;
20287;SDS011;10303;51.960;8.372;2024-01-11T03:23:25;16.27;;;8.43;;
20287;SDS011;10303;51.960;8.372;2024-01-11T03:25:51;18.70;;;8.60;;
20287;SDS011;10303;51.960;8.372;2024-01-11T03:28:17;19.37;;;8.30;;
20287;SDS011;10303;51.960;8.372;2024-01-11T03:30:43;15.60;;;7.80;;
20287;SDS011;10303;51.960;8.372;2024-01-11T03:33:09;15.23;;;7.23;;
20287;SDS011;10303;51.960;8.372;2024-01-11T03:35:35;18.23;;;8.23;;
20287;SDS011;10303;51.960;8.372;2024-01-11T03:38:03;16.92;;;7.38;;
20287;SDS011;10303;51.960;8.372;2024-01-11T03:40:30;20.55;;;8.57;;
20287;SDS011;10303;51.960;8.372;2024-01-11T03:42:56;15.73;;;8.20;;
20287;SDS011;10303;51.960;8.372;2024-01-11T03:45:22;18.67;;;8.27;;
20287;SDS011;10303;51.960;8.372;2024-01-11T03:47:48;15.37;;;7.37;;
20287;SDS011;10303;51.960;8.372;2024-01-11T03:50:14;14.57;;;7.43;;
20287;SDS011;10303;51.960;8.372;2024-01-11T03:52:40;18.37;;;8.80;;
20287;SDS011;10303;51.960;8.372;2024-01-11T03:55:07;16.20;;;8.90;;
20287;SDS011;10303;51.960;8.372;2024-01-11T03:57:33;13.82;;;7.03;;
20287;SDS011;10303;51.960;8.372;2024-01-11T04:00:00;15.52;;;7.78;;
20287;SDS011;10303;51.960;8.372;2024-01-11T04:02:26;18.15;;;7.85;;
20287;SDS011;10303;51.960;8.372;2024-01-11T04:04:52;15.87;;;7.73;;
20287;SDS011;10303;51.960;8.372;2024-01-11T04:07:19;18.60;;;8.38;;
20287;SDS011;10303;51.960;8.372;2024-01-11T04:09:45;23.95;;;8.68;;
20287;SDS011;10303;51.960;8.372;2024-01-11T04:12:11;20.63;;;9.00;;
20287;SDS011;10303;51.960;8.372;2024-01-11T04:14:39;19.30;;;8.63;;
20287;SDS011;10303;51.960;8.372;2024-01-11T04:17:06;12.73;;;7.05;;
20287;SDS011;10303;51.960;8.372;2024-01-11T04:19:32;15.70;;;6.97;;
20287;SDS011;10303;51.960;8.372;2024-01-11T04:21:58;20.60;;;7.50;;
20287;SDS011;10303;51.960;8.372;2024-01-11T04:24:24;13.43;;;6.80;;
20287;SDS011;10303;51.960;8.372;2024-01-11T04:26:50;21.03;;;9.47;;
20287;SDS011;10303;51.960;8.372;2024-01-11T04:29:16;20.87;;;7.67;;
20287;SDS011;10303;51.960;8.372;2024-01-11T04:31:41;13.77;;;7.30;;
20287;SDS011;10303;51.960;8.372;2024-01-11T04:34:07;17.00;;;8.03;;
20287;SDS011;10303;51.960;8.372;2024-01-11T04:36:36;16.85;;;7.80;;
20287;SDS011;10303;51.960;8.372;2024-01-11T04:39:04;19.35;;;7.53;;
20287;SDS011;10303;51.960;8.372;2024-01-11T04:41:31;11.93;;;7.03;;
20287;SDS011;10303;51.960;8.372;2024-01-11T04:43:58;15.38;;;7.40;;
20287;SDS011;10303;51.960;8.372;2024-01-11T04:46:24;14.47;;;7.03;;
20287;SDS011;10303;51.960;8.372;2024-01-11T04:48:50;17.27;;;7.07;;
20287;SDS011;10303;51.960;8.372;2024-01-11T04:51:16;15.82;;;7.57;;
20287;SDS011;10303;51.960;8.372;2024-01-11T04:53:43;15.20;;;7.88;;
20287;SDS011;10303;51.960;8.372;2024-01-11T04:56:11;15.85;;;7.55;;
20287;SDS011;10303;51.960;8.372;2024-01-11T04:58:41;17.67;;;7.53;;
20287;SDS011;10303;51.960;8.372;2024-01-11T05:01:12;17.58;;;8.38;;
20287;SDS011;10303;51.960;8.372;2024-01-11T05:03:43;12.40;;;7.43;;
20287;SDS011;10303;51.960;8.372;2024-01-11T05:06:20;17.65;;;8.25;;
20287;SDS011;10303;51.960;8.372;2024-01-11T05:08:48;16.10;;;7.28;;
20287;SDS011;10303;51.960;8.372;2024-01-11T05:11:20;17.35;;;8.43;;
20287;SDS011;10303;51.960;8.372;2024-01-11T05:13:49;19.90;;;9.00;;
20287;SDS011;10303;51.960;8.372;2024-01-11T05:16:26;15.70;;;7.65;;
20287;SDS011;10303;51.960;8.372;2024-01-11T05:18:53;19.83;;;8.52;;
20287;SDS011;10303;51.960;8.372;2024-01-11T05:21:22;15.02;;;7.45;;
20287;SDS011;10303;51.960;8.372;2024-01-11T05:23:49;17.75;;;7.28;;
20287;SDS011;10303;51.960;8.372;2024-01-11T05:26:16;15.90;;;7.60;;
20287;SDS011;10303;51.960;8.372;2024-01-11T05:28:44;15.27;;;7.63;;
20287;SDS011;10303;51.960;8.372;2024-01-11T05:31:11;22.48;;;8.25;;
20287;SDS011;10303;51.960;8.372;2024-01-11T05:33:40;15.35;;;7.38;;
20287;SDS011;10303;51.960;8.372;2024-01-11T05:36:07;16.60;;;8.05;;
20287;SDS011;10303;51.960;8.372;2024-01-11T05:38:33;17.38;;;7.50;;
20287;SDS011;10303;51.960;8.372;2024-01-11T05:41:00;18.70;;;8.35;;
20287;SDS011;10303;51.960;8.372;2024-01-11T05:43:27;18.65;;;8.43;;
20287;SDS011;10303;51.960;8.372;2024-01-11T05:45:53;16.65;;;8.13;;
20287;SDS011;10303;51.960;8.372;2024-01-11T05:48:19;15.43;;;8.30;;
20287;SDS011;10303;51.960;8.372;2024-01-11T05:50:45;17.07;;;8.17;;
20287;SDS011;10303;51.960;8.372;2024-01-11T05:53:12;17.65;;;8.10;;
20287;SDS011;10303;51.960;8.372;2024-01-11T05:55:40;19.48;;;9.15;;
20287;SDS011;10303;51.960;8.372;2024-01-11T05:58:06;22.90;;;9.13;;
20287;SDS011;10303;51.960;8.372;2024-01-11T06:00:32;18.50;;;7.97;;
20287;SDS011;10303;51.960;8.372;2024-01-11T06:02:58;19.88;;;8.65;;
20287;SDS011;10303;51.960;8.372;2024-01-11T06:05:25;17.33;;;8.32;;
20287;SDS011;10303;51.960;8.372;2024-01-11T06:07:51;18.77;;;7.75;;
20287;SDS011;10303;51.960;8.372;2024-01-11T06:10:17;20.40;;;8.40;;
20287;SDS011;10303;51.960;8.372;2024-01-11T06:12:43;16.80;;;8.03;;
20287;SDS011;10303;51.960;8.372;2024-01-11T06:15:09;15.53;;;6.77;;
20287;SDS011;10303;51.960;8.372;2024-01-11T06:17:35;22.00;;;8.53;;
20287;SDS011;10303;51.960;8.372;2024-01-11T06:20:01;15.95;;;8.63;;
20287;SDS011;10303;51.960;8.372;2024-01-11T06:22:28;24.23;;;9.98;;
20287;SDS011;10303;51.960;8.372;2024-01-11T06:24:54;23.23;;;9.50;;
20287;SDS011;10303;51.960;8.372;2024-01-11T06:27:20;18.83;;;8.87;;
20287;SDS011;10303;51.960;8.372;2024-01-11T06:29:46;18.80;;;8.17;;
20287;SDS011;10303;51.960;8.372;2024-01-11T06:32:12;23.13;;;9.23;;
20287;SDS011;10303;51.960;8.372;2024-01-11T06:34:38;14.97;;;7.00;;
20287;SDS011;10303;51.960;8.372;2024-01-11T06:37:06;20.65;;;7.93;;
20287;SDS011;10303;51.960;8.372;2024-01-11T06:39:32;19.40;;;8.95;;
20287;SDS011;10303;51.960;8.372;2024-01-11T06:41:58;18.57;;;8.23;;
20287;SDS011;10303;51.960;8.372;2024-01-11T06:44:24;18.43;;;7.77;;
20287;SDS011;10303;51.960;8.372;2024-01-11T06:46:50;21.90;;;8.40;;
20287;SDS011;10303;51.960;8.372;2024-01-11T06:49:16;19.17;;;7.90;;
20287;SDS011;10303;51.960;8.372;2024-01-11T06:51:41;14.13;;;7.03;;
20287;SDS011;10303;51.960;8.372;2024-01-11T06:54:07;20.57;;;7.90;;
20287;SDS011;10303;51.960;8.372;2024-01-11T06:56:33;19.00;;;8.60;;
20287;SDS011;10303;51.960;8.372;2024-01-11T06:58:59;17.40;;;8.03;;
20287;SDS011;10303;51.960;8.372;2024-01-11T07:01:25;16.77;;;7.57;;
20287;SDS011;10303;51.960;8.372;2024-01-11T07:03:51;20.33;;;8.80;;
20287;SDS011;10303;51.960;8.372;2024-01-11T07:06:17;17.10;;;7.70;;
20287;SDS011;10303;51.960;8.372;2024-01-11T07:08:43;14.77;;;7.30;;
20287;SDS011;10303;51.960;8.372;2024-01-11T07:11:09;20.15;;;8.68;;
20287;SDS011;10303;51.960;8.372;2024-01-11T07:13:35;20.02;;;8.95;;
20287;SDS011;10303;51.960;8.372;2024-01-11T07:16:01;18.73;;;7.60;;
20287;SDS011;10303;51.960;8.372;2024-01-11T07:18:28;24.48;;;9.43;;
20287;SDS011;10303;51.960;8.372;2024-01-11T07:20:55;18.33;;;8.60;;
20287;SDS011;10303;51.960;8.372;2024-01-11T07:23:23;19.27;;;8.20;;
20287;SDS011;10303;51.960;8.372;2024-01-11T07:25:49;18.25;;;8.85;;
20287;SDS011;10303;51.960;8.372;2024-01-11T07:28:15;20.85;;;7.80;;
20287;SDS011;10303;51.960;8.372;2024-01-11T07:30:42;17.73;;;7.65;;
20287;SDS011;10303;51.960;8.372;2024-01-11T07:33:10;15.15;;;7.50;;
20287;SDS011;10303;51.960;8.372;2024-01-11T07:35:36;14.70;;;7.40;;
20287;SDS011;10303;51.960;8.372;2024-01-11T07:38:02;17.73;;;7.40;;
20287;SDS011;10303;51.960;8.372;2024-01-11T07:40:28;17.75;;;8.00;;
20287;SDS011;10303;51.960;8.372;2024-01-11T07:42:54;19.77;;;8.33;;
20287;SDS011;10303;51.960;8.372;2024-01-11T07:45:20;17.95;;;8.27;;
20287;SDS011;10303;51.960;8.372;2024-01-11T07:47:46;23.33;;;9.95;;
20287;SDS011;10303;51.960;8.372;2024-01-11T07:50:13;13.10;;;7.43;;
20287;SDS011;10303;51.960;8.372;2024-01-11T07:52:39;20.13;;;9.13;;
20287;SDS011;10303;51.960;8.372;2024-01-11T07:55:09;22.55;;;8.10;;
20287;SDS011;10303;51.960;8.372;2024-01-11T07:57:37;13.50;;;6.68;;
20287;SDS011;10303;51.960;8.372;2024-01-11T08:00:06;18.00;;;7.88;;
20287;SDS011;10303;51.960;8.372;2024-01-11T08:02:39;13.93;;;7.32;;
20287;SDS011;10303;51.960;8.372;2024-01-11T08:05:05;15.57;;;7.57;;
20287;SDS011;10303;51.960;8.372;2024-01-11T08:07:32;16.48;;;8.18;;
20287;SDS011;10303;51.960;8.372;2024-01-11T08:09:57;16.83;;;8.37;;
20287;SDS011;10303;51.960;8.372;2024-01-11T08:12:23;15.90;;;8.57;;
20287;SDS011;10303;51.960;8.372;2024-01-11T08:14:50;19.52;;;8.65;;
20287;SDS011;10303;51.960;8.372;2024-01-11T08:17:15;19.67;;;9.00;;
20287;SDS011;10303;51.960;8.372;2024-01-11T08:19:41;19.70;;;8.40;;
20287;SDS011;10303;51.960;8.372;2024-01-11T08:22:08;15.65;;;8.18;;
20287;SDS011;10303;51.960;8.372;2024-01-11T08:24:35;15.93;;;8.20;;
20287;SDS011;10303;51.960;8.372;2024-01-11T08:27:02;15.30;;;7.32;;
20287;SDS011;10303;51.960;8.372;2024-01-11T08:29:28;20.83;;;8.23;;
20287;SDS011;10303;51.960;8.372;2024-01-11T08:31:54;14.13;;;7.38;;
20287;SDS011;10303;51.960;8.372;2024-01-11T08:34:21;21.23;;;8.82;;
20287;SDS011;10303;51.960;8.372;2024-01-11T08:36:48;17.67;;;8.27;;
20287;SDS011;10303;51.960;8.372;2024-01-11T08:39:14;16.97;;;8.40;;
20287;SDS011;10303;51.960;8.372;2024-01-11T08:41:40;20.33;;;8.67;;
20287;SDS011;10303;51.960;8.372;2024-01-11T08:44:07;20.83;;;8.83;;
20287;SDS011;10303;51.960;8.372;2024-01-11T08:46:33;18.97;;;8.30;;
20287;SDS011;10303;51.960;8.372;2024-01-11T08:49:00;18.47;;;8.37;;
20287;SDS011;10303;51.960;8.372;2024-01-11T08:51:29;18.13;;;8.27;;
20287;SDS011;10303;51.960;8.372;2024-01-11T08:53:55;16.83;;;7.57;;
20287;SDS011;10303;51.960;8.372;2024-01-11T08:56:21;17.63;;;8.73;;
20287;SDS011;10303;51.960;8.372;2024-01-11T08:58:47;24.40;;;9.70;;
20287;SDS011;10303;51.960;8.372;2024-01-11T09:01:17;24.17;;;9.40;;
20287;SDS011;10303;51.960;8.372;2024-01-11T09:03:47;25.97;;;10.50;;
20287;SDS011;10303;51.960;8.372;2024-01-11T09:06:13;25.27;;;9.63;;
20287;SDS011;10303;51.960;8.372;2024-01-11T09:08:39;19.77;;;9.67;;
20287;SDS011;10303;51.960;8.372;2024-01-11T09:11:06;24.93;;;10.83;;
20287;SDS011;10303;51.960;8.372;2024-01-11T09:13:32;21.90;;;9.97;;
20287;SDS011;10303;51.960;8.372;2024-01-11T09:15:58;14.67;;;9.20;;
20287;SDS011;10303;51.960;8.372;2024-01-11T09:18:24;21.07;;;9.03;;
20287;SDS011;10303;51.960;8.372;2024-01-11T09:20:50;17.07;;;8.97;;
20287;SDS011;10303;51.960;8.372;2024-01-11T09:23:15;18.57;;;9.57;;
20287;SDS011;10303;51.960;8.372;2024-01-11T09:25:43;18.10;;;9.83;;
20287;SDS011;10303;51.960;8.372;2024-01-11T09:28:09;15.20;;;8.13;;
20287;SDS011;10303;51.960;8.372;2024-01-11T09:30:34;17.37;;;8.43;;
20287;SDS011;10303;51.960;8.372;2024-01-11T09:33:00;16.33;;;8.37;;
20287;SDS011;10303;51.960;8.372;2024-01-11T09:35:26;17.73;;;9.13;;
20287;SDS011;10303;51.960;8.372;2024-01-11T09:37:52;21.00;;;10.33;;
20287;SDS011;10303;51.960;8.372;2024-01-11T09:40:18;19.93;;;10.53;;
20287;SDS011;10303;51.960;8.372;2024-01-11T09:42:44;26.30;;;11.83;;
20287;SDS011;10303;51.960;8.372;2024-01-11T09:45:14;19.30;;;10.23;;
20287;SDS011;10303;51.960;8.372;2024-01-11T09:47:42;23.97;;;10.57;;
20287;SDS011;10303;51.960;8.372;2024-01-11T09:50:14;21.07;;;9.27;;
20287;SDS011;10303;51.960;8.372;2024-01-11T09:52:45;16.97;;;9.33;;
20287;SDS011;10303;51.960;8.372;2024-01-11T09:55:13;16.70;;;9.13;;
20287;SDS011;10303;51.960;8.372;2024-01-11T09:57:43;21.13;;;10.73;;
20287;SDS011;10303;51.960;8.372;2024-01-11T10:00:13;17.07;;;9.37;;
20287;SDS011;10303;51.960;8.372;2024-01-11T10:02:45;15.43;;;8.87;;
20287;SDS011;10303;51.960;8.372;2024-01-11T10:05:12;21.20;;;9.50;;
20287;SDS011;10303;51.960;8.372;2024-01-11T10:07:41;19.30;;;9.53;;
20287;SDS011;10303;51.960;8.372;2024-01-11T10:10:07;20.83;;;10.33;;
20287;SDS011;10303;51.960;8.372;2024-01-11T10:12:35;21.00;;;10.10;;
20287;SDS011;10303;51.960;8.372;2024-01-11T10:15:05;20.77;;;10.93;;
20287;SDS011;10303;51.960;8.372;2024-01-11T10:17:43;22.20;;;10.40;;
20287;SDS011;10303;51.960;8.372;2024-01-11T10:20:14;18.90;;;10.10;;
20287;SDS011;10303;51.960;8.372;2024-01-11T10:22:42;17.70;;;9.90;;
20287;SDS011;10303;51.960;8.372;2024-01-11T10:25:16;21.80;;;11.17;;
20287;SDS011;10303;51.960;8.372;2024-01-11T10:27:43;19.57;;;10.87;;
20287;SDS011;10303;51.960;8.372;2024-01-11T10:30:11;17.23;;;9.53;;
20287;SDS011;10303;51.960;8.372;2024-01-11T10:32:41;14.73;;;8.53;;
20287;SDS011;10303;51.960;8.372;2024-01-11T10:35:08;21.43;;;11.83;;
20287;SDS011;10303;51.960;8.372;2024-01-11T10:37:35;27.47;;;13.33;;
20287;SDS011;10303;51.960;8.372;2024-01-11T10:40:05;27.10;;;13.33;;
20287;SDS011;10303;51.960;8.372;2024-01-11T10:42:41;27.60;;;11.07;;
20287;SDS011;10303;51.960;8.372;2024-01-11T10:45:16;28.13;;;12.70;;
20287;SDS011;10303;51.960;8.372;2024-01-11T10:47:54;27.60;;;12.83;;
20287;SDS011;10303;51.960;8.372;2024-01-11T10:50:26;21.50;;;10.67;;
20287;SDS011;10303;51.960;8.372;2024-01-11T10:56:08;20.43;;;10.67;;
20287;SDS011;10303;51.960;8.372;2024-01-11T10:58:37;20.63;;;11.03;;
20287;SDS011;10303;51.960;8.372;2024-01-11T11:01:12;23.30;;;11.03;;
20287;SDS011;10303;51.960;8.372;2024-01-11T11:03:39;20.40;;;11.37;;
20287;SDS011;10303;51.960;8.372;2024-01-11T11:06:09;17.67;;;9.60;;
20287;SDS011;10303;51.960;8.372;2024-01-11T11:08:37;18.40;;;8.20;;
20287;SDS011;10303;51.960;8.372;2024-01-11T11:11:04;9.57;;;5.17;;
20287;SDS011;10303;51.960;8.372;2024-01-11T11:13:32;7.43;;;3.80;;
20287;SDS011;10303;51.960;8.372;2024-01-11T11:16:02;3.27;;;2.60;;
20287;SDS011;10303;51.960;8.372;2024-01-11T11:18:31;4.60;;;2.60;;
20287;SDS011;10303;51.960;8.372;2024-01-11T11:21:00;3.90;;;1.90;;
20287;SDS011;10303;51.960;8.372;2024-01-11T11:23:26;3.43;;;2.20;;
20287;SDS011;10303;51.960;8.372;2024-01-11T11:25:53;3.37;;;2.13;;
20287;SDS011;10303;51.960;8.372;2024-01-11T11:28:23;2.40;;;2.03;;
20287;SDS011;10303;51.960;8.372;2024-01-11T11:30:49;3.13;;;1.90;;
20287;SDS011;10303;51.960;8.372;2024-01-11T11:33:21;2.23;;;1.73;;
20287;SDS011;10303;51.960;8.372;2024-01-11T11:35:52;3.90;;;1.87;;
20287;SDS011;10303;51.960;8.372;2024-01-11T11:38:29;3.60;;;1.90;;
20287;SDS011;10303;51.960;8.372;2024-01-11T11:40:57;3.00;;;1.80;;
20287;SDS011;10303;51.960;8.372;2024-01-11T11:43:28;2.73;;;1.97;;
20287;SDS011;10303;51.960;8.372;2024-01-11T11:45:56;3.60;;;2.03;;
20287;SDS011;10303;51.960;8.372;2024-01-11T11:51:10;3.03;;;1.53;;
20287;SDS011;10303;51.960;8.372;2024-01-11T11:53:38;2.37;;;1.87;;
20287;SDS011;10303;51.960;8.372;2024-01-11T11:56:06;2.50;;;2.10;;
20287;SDS011;10303;51.960;8.372;2024-01-11T11:58:35;4.33;;;2.60;;
20287;SDS011;10303;51.960;8.372;2024-01-11T12:01:03;3.30;;;2.40;;
20287;SDS011;10303;51.960;8.372;2024-01-11T12:03:33;2.27;;;1.80;;
20287;SDS011;10303;51.960;8.372;2024-01-11T12:06:06;1.60;;;1.33;;
20287;SDS011;10303;51.960;8.372;2024-01-11T12:08:35;3.30;;;1.97;;
20287;SDS011;10303;51.960;8.372;2024-01-11T12:11:03;1.70;;;1.53;;
20287;SDS011;10303;51.960;8.372;2024-01-11T12:13:30;4.60;;;2.20;;
20287;SDS011;10303;51.960;8.372;2024-01-11T12:15:57;6.47;;;2.63;;
20287;SDS011;10303;51.960;8.372;2024-01-11T12:18:23;3.27;;;2.03;;
20287;SDS011;10303;51.960;8.372;2024-01-11T12:20:49;5.80;;;2.13;;
20287;SDS011;10303;51.960;8.372;2024-01-11T12:23:19;3.53;;;2.53;;
20287;SDS011;10303;51.960;8.372;2024-01-11T12:25:46;5.67;;;2.73;;
20287;SDS011;10303;51.960;8.372;2024-01-11T12:28:12;5.33;;;3.40;;
20287;SDS011;10303;51.960;8.372;2024-01-11T12:30:39;6.33;;;3.17;;
20287;SDS011;10303;51.960;8.372;2024-01-11T12:33:05;5.27;;;3.67;;
20287;SDS011;10303;51.960;8.372;2024-01-11T12:35:32;4.17;;;2.80;;
20287;SDS011;10303;51.960;8.372;2024-01-11T12:37:59;5.17;;;3.10;;
20287;SDS011;10303;51.960;8.372;2024-01-11T12:40:29;6.90;;;3.90;;
20287;SDS011;10303;51.960;8.372;2024-01-11T12:43:03;8.03;;;4.23;;
20287;SDS011;10303;51.960;8.372;2024-01-11T12:45:35;7.10;;;4.60;;
20287;SDS011;10303;51.960;8.372;2024-01-11T12:48:01;5.37;;;3.20;;
20287;SDS011;10303;51.960;8.372;2024-01-11T12:50:31;6.87;;;3.93;;
20287;SDS011;10303;51.960;8.372;2024-01-11T12:53:08;10.17;;;4.00;;
20287;SDS011;10303;51.960;8.372;2024-01-11T12:55:44;10.47;;;4.50;;
20287;SDS011;10303;51.960;8.372;2024-01-11T12:58:14;13.07;;;5.57;;
20287;SDS011;10303;51.960;8.372;2024-01-11T13:00:46;12.37;;;4.67;;
20287;SDS011;10303;51.960;8.372;2024-01-11T13:03:14;9.33;;;4.57;;
20287;SDS011;10303;51.960;8.372;2024-01-11T13:05:40;9.73;;;5.50;;
20287;SDS011;10303;51.960;8.372;2024-01-11T13:08:10;7.53;;;3.43;;
20287;SDS011;10303;51.960;8.372;2024-01-11T13:10:36;9.70;;;4.13;;
20287;SDS011;10303;51.960;8.372;2024-01-11T13:13:03;9.93;;;3.70;;
20287;SDS011;10303;51.960;8.372;2024-01-11T13:15:30;8.30;;;4.33;;
20287;SDS011;10303;51.960;8.372;2024-01-11T13:17:57;8.13;;;4.73;;
20287;SDS011;10303;51.960;8.372;2024-01-11T13:20:26;12.10;;;5.70;;
20287;SDS011;10303;51.960;8.372;2024-01-11T13:25:45;9.97;;;5.73;;
20287;SDS011;10303;51.960;8.372;2024-01-11T13:28:13;11.80;;;6.07;;
20287;SDS011;10303;51.960;8.372;2024-01-11T13:30:39;11.63;;;6.30;;
20287;SDS011;10303;51.960;8.372;2024-01-11T13:33:10;10.30;;;4.83;;
20287;SDS011;10303;51.960;8.372;2024-01-11T13:35:38;13.17;;;5.57;;
20287;SDS011;10303;51.960;8.372;2024-01-11T13:38:06;12.67;;;6.10;;
20287;SDS011;10303;51.960;8.372;2024-01-11T13:40:32;10.83;;;5.40;;
20287;SDS011;10303;51.960;8.372;2024-01-11T13:42:59;9.07;;;4.63;;
20287;SDS011;10303;51.960;8.372;2024-01-11T13:45:27;11.50;;;5.20;;
20287;SDS011;10303;51.960;8.372;2024-01-11T13:47:53;10.47;;;5.20;;
20287;SDS011;10303;51.960;8.372;2024-01-11T13:50:19;9.30;;;4.83;;
20287;SDS011;10303;51.960;8.372;2024-01-11T13:52:46;8.13;;;4.70;;
20287;SDS011;10303;51.960;8.372;2024-01-11T13:55:12;19.73;;;8.00;;
20287;SDS011;10303;51.960;8.372;2024-01-11T13:57:39;11.03;;;5.17;;
20287;SDS011;10303;51.960;8.372;2024-01-11T14:00:05;15.37;;;6.37;;
20287;SDS011;10303;51.960;8.372;2024-01-11T14:02:32;13.37;;;6.70;;
20287;SDS011;10303;51.960;8.372;2024-01-11T14:04:58;14.67;;;6.73;;
20287;SDS011;10303;51.960;8.372;2024-01-11T14:07:24;17.90;;;7.83;;
20287;SDS011;10303;51.960;8.372;2024-01-11T14:09:51;13.20;;;6.73;;
20287;SDS011;10303;51.960;8.372;2024-01-11T14:12:17;16.63;;;6.43;;
20287;SDS011;10303;51.960;8.372;2024-01-11T14:14:43;15.30;;;6.47;;
20287;SDS011;10303;51.960;8.372;2024-01-11T14:17:09;13.40;;;6.73;;
20287;SDS011;10303;51.960;8.372;2024-01-11T14:19:35;13.10;;;6.70;;
20287;SDS011;10303;51.960;8.372;2024-01-11T14:22:01;14.93;;;6.97;;
20287;SDS011;10303;51.960;8.372;2024-01-11T14:24:27;13.50;;;6.83;;
20287;SDS011;10303;51.960;8.372;2024-01-11T14:26:53;9.70;;;4.73;;
20287;SDS011;10303;51.960;8.372;2024-01-11T14:29:19;8.17;;;4.60;;
20287;SDS011;10303;51.960;8.372;2024-01-11T14:31:45;10.73;;;5.00;;
20287;SDS011;10303;51.960;8.372;2024-01-11T14:34:11;14.63;;;6.53;;
20287;SDS011;10303;51.960;8.372;2024-01-11T14:36:38;9.17;;;5.30;;
20287;SDS011;10303;51.960;8.372;2024-01-11T14:39:04;11.20;;;6.33;;
20287;SDS011;10303;51.960;8.372;2024-01-11T14:41:31;15.70;;;7.40;;
20287;SDS011;10303;51.960;8.372;2024-01-11T14:43:57;19.30;;;7.57;;